Terminal Aerodrome Forecast
Issued by NWS Wilmington, OH

Current Version | Previous Version | Graphics & Text | Print | Product List | Glossary On
Versions: 1 2 3 4 5 6 7 8 9 10 11 12 13 14 15 16 17 18 19 20 21 22 23 24
000
FTUS41 KILN 020809 AAB
TAFDAY
TAF AMD
KDAY 020809Z 0208/0306 02007KT 3SM BR OVC006
      TEMPO 0208/0212 1SM BR OVC003
     FM021200 01006KT P6SM OVC015
     FM021700 34006KT P6SM SCT015 BKN100
     FM022000 36007KT P6SM VCSH OVC025
     FM030200 02006KT 5SM BR BKN020=

USA.gov is the U.S. government's official web portal to all federal, state and local government web resources and services.